Time;durP1;ratioP1;P1;durP2;ratioP2;P2;SDS_P1;SDS_P2;PMS_P1;PMS_P2;Temp;Humidity;BMP_temperature;BMP_pressure;BME280_temperature;BME280_humidity;BME280_pressure;Samples;Min_cycle;Max_cycle;Signal;HPM_P1;HPM_P2
2021/11/13 00:00:09;;;;;;;5.97;4.97;;;;;;;;;;5033589;28;20037;-63
2021/11/13 00:02:36;;;;;;;7.53;5.77;;;;;;;;;;5050976;28;20024;-62
2021/11/13 00:05:04;;;;;;;6.33;4.73;;;;;;;;;;5054087;28;20114;-64
2021/11/13 00:07:33;;;;;;;6.73;5.13;;;;;;;;;;5050777;28;20041;-64
2021/11/13 00:10:02;;;;;;;8.30;6.30;;;;;;;;;;5048333;28;20036;-62
2021/11/13 00:12:29;;;;;;;12.53;6.77;;;;;;;;;;5048611;28;20021;-63
2021/11/13 00:14:56;;;;;;;13.57;6.53;;;;;;;;;;5043373;28;20022;-63
2021/11/13 00:17:23;;;;;;;8.47;6.27;;;;;;;;;;5031114;28;20124;-62
2021/11/13 00:22:37;;;;;;;13.57;7.43;;;;;;;;;;5033194;28;20037;-62
2021/11/13 00:25:04;;;;;;;10.83;7.40;;;;;;;;;;5033412;28;20029;-62
2021/11/13 00:27:40;;;;;;;8.80;6.30;;;;;;;;;;5033637;28;20638;-62
2021/11/13 00:30:07;;;;;;;7.80;6.60;;;;;;;;;;5029989;28;20033;-62
2021/11/13 00:32:34;;;;;;;12.10;6.27;;;;;;;;;;5028042;28;20026;-62
2021/11/13 00:35:18;;;;;;;14.57;7.03;;;;;;;;;;5028151;28;20084;-62
2021/11/13 00:37:45;;;;;;;10.13;5.87;;;;;;;;;;5028315;28;20037;-62
2021/11/13 00:40:14;;;;;;;7.70;5.60;;;;;;;;;;5031571;28;20480;-62
2021/11/13 00:42:41;;;;;;;6.93;5.83;;;;;;;;;;5033157;28;20022;-62
2021/11/13 00:45:08;;;;;;;8.30;5.40;;;;;;;;;;5033261;28;20025;-62
2021/11/13 00:47:35;;;;;;;7.67;5.33;;;;;;;;;;5033248;28;20052;-62
2021/11/13 00:50:02;;;;;;;7.83;6.33;;;;;;;;;;5031597;28;20029;-62
2021/11/13 00:52:28;;;;;;;9.53;6.13;;;;;;;;;;5029342;28;20095;-61
2021/11/13 00:55:03;;;;;;;8.13;6.17;;;;;;;;;;5027822;28;20155;-62
2021/11/13 00:57:32;;;;;;;11.13;5.53;;;;;;;;;;5027916;28;20036;-62
2021/11/13 00:59:58;;;;;;;8.87;5.80;;;;;;;;;;5027626;28;20052;-62
2021/11/13 01:02:25;;;;;;;9.83;5.10;;;;;;;;;;5043140;28;20341;-62
2021/11/13 01:04:52;;;;;;;10.20;6.40;;;;;;;;;;5032523;28;20025;-62
2021/11/13 01:07:19;;;;;;;11.13;6.30;;;;;;;;;;5032531;28;20033;-62
2021/11/13 01:09:45;;;;;;;12.97;5.83;;;;;;;;;;5032986;28;20101;-62
2021/11/13 01:12:12;;;;;;;8.50;4.77;;;;;;;;;;5032823;28;20025;-61
2021/11/13 01:14:42;;;;;;;19.63;10.63;;;;;;;;;;5029575;28;20104;-61
2021/11/13 01:17:13;;;;;;;12.83;8.10;;;;;;;;;;5027552;28;20042;-62
2021/11/13 01:19:45;;;;;;;9.83;7.57;;;;;;;;;;5027181;28;20026;-61
2021/11/13 01:22:12;;;;;;;15.10;7.53;;;;;;;;;;5027285;28;20069;-61
2021/11/13 01:24:39;;;;;;;11.37;6.33;;;;;;;;;;5029101;28;20018;-61
2021/11/13 01:27:05;;;;;;;25.67;7.90;;;;;;;;;;5032641;28;20417;-61
2021/11/13 01:29:32;;;;;;;11.70;7.63;;;;;;;;;;5032673;28;20541;-61
2021/11/13 01:32:00;;;;;;;13.77;7.60;;;;;;;;;;5032425;28;20407;-61
2021/11/13 01:34:26;;;;;;;11.23;6.17;;;;;;;;;;5031950;28;20013;-61
2021/11/13 01:36:53;;;;;;;9.90;6.40;;;;;;;;;;5029195;28;20083;-61
2021/11/13 01:39:20;;;;;;;15.17;9.07;;;;;;;;;;5027057;28;20026;-61
2021/11/13 01:41:48;;;;;;;16.60;8.83;;;;;;;;;;5027296;28;20029;-61
2021/11/13 01:44:35;;;;;;;14.77;10.17;;;;;;;;;;5027428;28;20582;-61
2021/11/13 01:47:02;;;;;;;10.13;7.30;;;;;;;;;;5029922;28;20532;-61
2021/11/13 01:49:29;;;;;;;9.77;6.43;;;;;;;;;;5032382;28;20036;-61
2021/11/13 01:51:56;;;;;;;18.77;13.63;;;;;;;;;;5031600;28;20108;-61
2021/11/13 01:54:23;;;;;;;17.83;12.80;;;;;;;;;;5032261;28;20018;-61
2021/11/13 01:56:51;;;;;;;12.83;8.47;;;;;;;;;;5032358;28;20422;-61
2021/11/13 01:59:21;;;;;;;11.53;7.73;;;;;;;;;;5028400;28;20481;-61
2021/11/13 02:01:50;;;;;;;12.80;7.17;;;;;;;;;;5038586;28;20033;-62
2021/11/13 02:04:17;;;;;;;10.43;7.17;;;;;;;;;;5026781;28;20029;-62
2021/11/13 02:06:44;;;;;;;11.53;7.97;;;;;;;;;;5026473;28;20071;-62
2021/11/13 02:09:11;;;;;;;13.40;8.37;;;;;;;;;;5029754;28;20018;-61
2021/11/13 02:11:38;;;;;;;13.80;8.37;;;;;;;;;;5032037;28;20061;-61
2021/11/13 02:14:04;;;;;;;11.73;8.13;;;;;;;;;;5031595;28;20029;-61
2021/11/13 02:16:31;;;;;;;11.17;7.20;;;;;;;;;;5031756;28;20040;-61
2021/11/13 02:18:58;;;;;;;15.87;7.47;;;;;;;;;;5031767;28;20025;-63
2021/11/13 02:21:26;;;;;;;11.40;7.07;;;;;;;;;;5028464;28;20589;-63
2021/11/13 02:24:02;;;;;;;11.03;7.13;;;;;;;;;;5026690;28;20422;-62
2021/11/13 02:26:29;;;;;;;17.93;7.87;;;;;;;;;;5026463;28;20041;-62
2021/11/13 02:28:56;;;;;;;15.63;8.30;;;;;;;;;;5027166;28;20431;-61
2021/11/13 02:31:40;;;;;;;11.30;8.30;;;;;;;;;;5029303;28;20100;-62
2021/11/13 02:34:08;;;;;;;15.63;7.73;;;;;;;;;;5031655;28;20034;-62
2021/11/13 02:36:35;;;;;;;9.80;7.73;;;;;;;;;;5031774;28;20025;-61
2021/11/13 02:39:05;;;;;;;10.60;6.97;;;;;;;;;;5031572;28;20484;-62
2021/11/13 02:41:31;;;;;;;11.07;7.43;;;;;;;;;;5031127;28;20471;-62
2021/11/13 02:43:58;;;;;;;12.53;6.50;;;;;;;;;;5027308;28;20021;-63
2021/11/13 02:46:27;;;;;;;11.57;7.53;;;;;;;;;;5019441;28;20485;-60
2021/11/13 02:48:54;;;;;;;11.60;8.03;;;;;;;;;;5025749;28;20021;-61
2021/11/13 02:51:21;;;;;;;14.40;7.93;;;;;;;;;;5026349;28;20039;-60
2021/11/13 02:54:00;;;;;;;11.83;7.80;;;;;;;;;;5029662;28;20025;-60
2021/11/13 02:56:27;;;;;;;10.37;7.67;;;;;;;;;;5030975;28;20022;-60
2021/11/13 02:58:54;;;;;;;9.43;7.20;;;;;;;;;;5031490;28;20083;-60
2021/11/13 03:01:22;;;;;;;11.27;8.00;;;;;;;;;;5031584;28;20033;-60
2021/11/13 03:03:50;;;;;;;11.77;7.87;;;;;;;;;;5031325;28;20042;-60
2021/11/13 03:06:26;;;;;;;12.90;7.67;;;;;;;;;;5027019;28;20409;-60
2021/11/13 03:08:58;;;;;;;9.30;7.20;;;;;;;;;;5026390;28;20022;-61
2021/11/13 03:11:25;;;;;;;10.07;7.37;;;;;;;;;;5026377;28;20026;-61
2021/11/13 03:13:53;;;;;;;10.37;7.80;;;;;;;;;;5028793;28;20571;-60
2021/11/13 03:16:20;;;;;;;14.23;7.67;;;;;;;;;;5033638;28;20083;-60
2021/11/13 03:18:47;;;;;;;10.23;6.97;;;;;;;;;;5035077;28;20021;-62
2021/11/13 03:21:15;;;;;;;8.53;6.33;;;;;;;;;;5034756;28;20029;-61
2021/11/13 03:23:43;;;;;;;10.47;8.07;;;;;;;;;;5034878;28;20021;-61
2021/11/13 03:29:02;;;;;;;12.97;7.20;;;;;;;;;;5028736;28;20498;-60
2021/11/13 03:31:29;;;;;;;13.63;7.23;;;;;;;;;;5009960;28;20062;-63
2021/11/13 03:33:58;;;;;;;14.63;7.90;;;;;;;;;;5009973;28;20091;-64
2021/11/13 03:36:25;;;;;;;10.83;7.13;;;;;;;;;;5009278;28;20026;-64
2021/11/13 03:38:52;;;;;;;11.67;7.40;;;;;;;;;;5030545;28;20037;-63
2021/11/13 03:41:20;;;;;;;10.43;7.13;;;;;;;;;;5034617;28;20040;-62
2021/11/13 03:43:55;;;;;;;11.43;6.67;;;;;;;;;;5034623;28;20033;-63
2021/11/13 03:46:22;;;;;;;8.60;6.23;;;;;;;;;;5033412;28;20499;-62
2021/11/13 03:48:50;;;;;;;8.30;6.13;;;;;;;;;;5034397;28;20030;-63
2021/11/13 03:51:17;;;;;;;17.63;7.90;;;;;;;;;;5028856;28;20040;-62
2021/11/13 03:53:44;;;;;;;11.10;7.33;;;;;;;;;;5029133;28;20025;-62
2021/11/13 03:56:11;;;;;;;14.80;7.73;;;;;;;;;;5029087;28;20018;-63
2021/11/13 03:58:38;;;;;;;16.13;7.87;;;;;;;;;;5029380;28;20030;-62
2021/11/13 04:01:05;;;;;;;10.87;7.30;;;;;;;;;;5033457;28;20030;-61
2021/11/13 04:03:31;;;;;;;10.37;6.67;;;;;;;;;;5034327;28;20120;-62
2021/11/13 04:05:58;;;;;;;14.13;6.70;;;;;;;;;;5033758;28;20029;-63
2021/11/13 04:08:25;;;;;;;28.20;8.60;;;;;;;;;;5033916;28;20033;-63
2021/11/13 04:10:52;;;;;;;9.50;6.50;;;;;;;;;;5034227;28;20108;-63
2021/11/13 04:13:21;;;;;;;9.73;7.10;;;;;;;;;;5029449;28;20029;-62
2021/11/13 04:15:48;;;;;;;9.97;6.77;;;;;;;;;;5028804;28;20540;-62
2021/11/13 04:18:15;;;;;;;16.13;7.93;;;;;;;;;;5028767;28;20371;-62
2021/11/13 04:20:41;;;;;;;11.77;7.40;;;;;;;;;;5028730;28;20032;-62
2021/11/13 04:23:08;;;;;;;9.77;6.50;;;;;;;;;;5032071;28;20468;-62
2021/11/13 04:25:35;;;;;;;11.17;7.80;;;;;;;;;;5033634;28;20045;-62
2021/11/13 04:28:02;;;;;;;8.03;6.63;;;;;;;;;;5033843;28;20485;-62
2021/11/13 04:30:29;;;;;;;8.20;6.47;;;;;;;;;;5033687;28;20017;-61
2021/11/13 04:32:55;;;;;;;10.77;6.30;;;;;;;;;;5033842;28;20504;-61
2021/11/13 04:38:09;;;;;;;9.03;6.23;;;;;;;;;;5016861;28;20480;-63
2021/11/13 04:40:39;;;;;;;12.10;8.10;;;;;;;;;;5035999;28;20116;-61
2021/11/13 04:43:06;;;;;;;11.13;7.77;;;;;;;;;;5028075;28;20021;-61
2021/11/13 04:45:38;;;;;;;11.67;8.33;;;;;;;;;;5032398;28;20033;-61
2021/11/13 04:48:05;;;;;;;12.87;9.70;;;;;;;;;;5033408;28;20030;-61
2021/11/13 04:50:33;;;;;;;11.80;8.37;;;;;;;;;;5032917;28;20378;-61
2021/11/13 04:53:00;;;;;;;11.13;7.60;;;;;;;;;;5033252;28;20037;-61
2021/11/13 04:55:27;;;;;;;11.93;7.20;;;;;;;;;;5032788;28;20033;-61
2021/11/13 04:57:56;;;;;;;9.77;7.33;;;;;;;;;;5028561;28;20533;-62
2021/11/13 05:00:24;;;;;;;8.87;6.80;;;;;;;;;;5027788;28;20037;-62
2021/11/13 05:02:58;;;;;;;10.67;6.90;;;;;;;;;;5028032;28;20057;-61
2021/11/13 05:08:12;;;;;;;9.40;7.20;;;;;;;;;;5032511;28;20037;-61
2021/11/13 05:10:39;;;;;;;10.03;7.10;;;;;;;;;;5032933;28;20120;-61
2021/11/13 05:13:06;;;;;;;9.60;7.10;;;;;;;;;;5032920;28;20021;-61
2021/11/13 05:15:54;;;;;;;10.83;7.23;;;;;;;;;;5032808;28;20464;-61
2021/11/13 05:18:21;;;;;;;8.97;6.73;;;;;;;;;;5031882;28;20120;-61
2021/11/13 05:20:47;;;;;;;10.83;5.37;;;;;;;;;;5027503;28;20086;-61
2021/11/13 05:23:15;;;;;;;8.77;6.77;;;;;;;;;;5027722;28;20479;-61
2021/11/13 05:25:41;;;;;;;9.30;5.83;;;;;;;;;;5027100;28;20517;-61
2021/11/13 05:28:08;;;;;;;8.73;5.17;;;;;;;;;;5026964;28;20022;-61
2021/11/13 05:30:35;;;;;;;14.83;6.50;;;;;;;;;;5032546;28;20025;-62
2021/11/13 05:33:02;;;;;;;9.80;6.73;;;;;;;;;;5032320;28;20032;-61
2021/11/13 05:35:29;;;;;;;9.77;6.37;;;;;;;;;;5032234;28;20025;-61
2021/11/13 05:37:56;;;;;;;8.27;6.17;;;;;;;;;;5032375;28;20017;-61
2021/11/13 05:40:23;;;;;;;12.80;7.70;;;;;;;;;;5032180;28;20387;-61
2021/11/13 05:42:51;;;;;;;8.57;6.20;;;;;;;;;;5027306;28;21168;-61
2021/11/13 05:45:17;;;;;;;7.43;5.43;;;;;;;;;;5026560;28;20042;-61
2021/11/13 05:47:44;;;;;;;9.37;6.57;;;;;;;;;;5027104;28;20025;-61
2021/11/13 05:50:13;;;;;;;8.20;5.57;;;;;;;;;;5026784;28;20022;-61
2021/11/13 05:52:50;;;;;;;8.37;6.23;;;;;;;;;;5031857;28;20083;-61
2021/11/13 05:55:18;;;;;;;7.60;5.10;;;;;;;;;;5032252;28;20017;-61
2021/11/13 05:57:45;;;;;;;10.17;6.30;;;;;;;;;;5031746;28;20030;-61
2021/11/13 06:00:16;;;;;;;6.80;4.70;;;;;;;;;;5032181;28;20029;-61
2021/11/13 06:02:46;;;;;;;9.93;5.77;;;;;;;;;;5031858;28;20553;-60
2021/11/13 06:05:13;;;;;;;11.03;7.13;;;;;;;;;;5026629;28;20048;-60
2021/11/13 06:07:40;;;;;;;10.33;7.60;;;;;;;;;;5026650;28;20045;-61
2021/11/13 06:10:08;;;;;;;9.23;6.53;;;;;;;;;;5026998;28;20036;-61
2021/11/13 06:12:35;;;;;;;9.97;6.63;;;;;;;;;;5026029;28;20270;-61
2021/11/13 06:15:02;;;;;;;8.73;6.37;;;;;;;;;;5031967;28;20018;-60
2021/11/13 06:17:29;;;;;;;8.30;5.70;;;;;;;;;;5032186;28;20409;-61
2021/11/13 06:19:56;;;;;;;8.83;6.27;;;;;;;;;;5032036;28;20262;-61
2021/11/13 06:22:23;;;;;;;8.90;5.40;;;;;;;;;;5031984;28;20025;-61
2021/11/13 06:24:59;;;;;;;9.77;6.00;;;;;;;;;;5031672;28;20254;-61
2021/11/13 06:27:29;;;;;;;8.67;6.13;;;;;;;;;;5024885;28;20539;-60
2021/11/13 06:29:56;;;;;;;10.83;6.17;;;;;;;;;;5026568;28;20029;-61
2021/11/13 06:35:19;;;;;;;9.10;6.47;;;;;;;;;;5027144;28;20274;-60
2021/11/13 06:37:46;;;;;;;10.63;7.27;;;;;;;;;;5031753;28;20741;-60
2021/11/13 06:40:14;;;;;;;10.23;6.60;;;;;;;;;;5031855;28;20286;-61
2021/11/13 06:42:41;;;;;;;9.20;6.07;;;;;;;;;;5031698;28;20817;-60
2021/11/13 06:45:11;;;;;;;9.77;6.97;;;;;;;;;;5031751;28;20030;-60
2021/11/13 06:47:37;;;;;;;9.20;6.57;;;;;;;;;;5031114;28;20286;-61
2021/11/13 06:50:05;;;;;;;8.93;6.53;;;;;;;;;;5029651;28;20891;-61
2021/11/13 06:52:40;;;;;;;10.83;6.70;;;;;;;;;;5030432;28;20255;-61
2021/11/13 06:55:07;;;;;;;12.55;7.38;;;;;;;;;;5030578;28;20266;-60
2021/11/13 06:57:34;;;;;;;10.57;7.83;;;;;;;;;;5031027;28;20069;-60
2021/11/13 07:00:00;;;;;;;10.77;7.13;;;;;;;;;;5035105;28;20602;-61
2021/11/13 07:02:29;;;;;;;9.77;7.43;;;;;;;;;;5035460;28;20328;-60
2021/11/13 07:04:56;;;;;;;14.47;6.60;;;;;;;;;;5034816;28;20259;-61
2021/11/13 07:07:26;;;;;;;9.87;6.97;;;;;;;;;;5035242;28;20294;-60
2021/11/13 07:09:52;;;;;;;13.33;7.67;;;;;;;;;;5033937;28;20044;-61
2021/11/13 07:12:19;;;;;;;10.23;7.90;;;;;;;;;;5030145;28;20029;-60
2021/11/13 07:14:53;;;;;;;13.90;7.97;;;;;;;;;;5030094;28;20344;-61
2021/11/13 07:17:20;;;;;;;13.63;7.82;;;;;;;;;;5029823;28;20048;-60
2021/11/13 07:19:47;;;;;;;11.23;7.13;;;;;;;;;;5029840;28;20463;-60
2021/11/13 07:22:17;;;;;;;9.97;7.50;;;;;;;;;;5035163;28;20029;-61
2021/11/13 07:24:44;;;;;;;9.07;7.13;;;;;;;;;;5035051;28;20053;-60
2021/11/13 07:27:12;;;;;;;10.40;6.93;;;;;;;;;;5034815;28;20029;-61
2021/11/13 07:29:47;;;;;;;10.93;6.63;;;;;;;;;;5034442;28;20033;-60
2021/11/13 07:32:16;;;;;;;9.85;7.60;;;;;;;;;;5033338;28;20345;-61
2021/11/13 07:34:50;;;;;;;10.77;8.43;;;;;;;;;;5029491;28;20033;-61
2021/11/13 07:37:17;;;;;;;9.95;8.10;;;;;;;;;;5029628;28;20376;-60
2021/11/13 07:39:44;;;;;;;9.07;5.97;;;;;;;;;;5029553;28;20544;-60
2021/11/13 07:42:11;;;;;;;7.97;6.10;;;;;;;;;;5030300;28;20027;-61
2021/11/13 07:44:38;;;;;;;10.57;7.00;;;;;;;;;;5034610;28;20052;-60
2021/11/13 07:47:05;;;;;;;9.40;7.03;;;;;;;;;;5034057;28;20072;-60
2021/11/13 07:49:31;;;;;;;8.53;6.43;;;;;;;;;;5034013;28;20021;-61
2021/11/13 07:52:08;;;;;;;;;;;;;;;;;;;;;
2021/11/13 07:54:35;;;;;;;9.27;7.07;;;;;;;;;;5032778;28;20032;-61
2021/11/13 07:57:02;;;;;;;12.13;8.53;;;;;;;;;;5029204;28;20056;-61
2021/11/13 07:59:29;;;;;;;11.80;7.73;;;;;;;;;;5028880;28;20111;-61
2021/11/13 08:01:56;;;;;;;12.20;7.80;;;;;;;;;;5028666;28;20032;-61
2021/11/13 08:04:23;;;;;;;10.43;6.83;;;;;;;;;;5029854;28;20029;-60
2021/11/13 08:06:49;;;;;;;12.60;7.77;;;;;;;;;;5033983;28;20035;-61
2021/11/13 08:09:16;;;;;;;13.47;6.97;;;;;;;;;;5033728;28;20411;-60
2021/11/13 08:11:45;;;;;;;9.83;6.97;;;;;;;;;;5034086;28;20105;-60
2021/11/13 08:14:12;;;;;;;11.70;7.17;;;;;;;;;;5034072;28;20057;-61
2021/11/13 08:16:39;;;;;;;9.93;7.17;;;;;;;;;;5032863;28;20029;-61
2021/11/13 08:19:08;;;;;;;9.13;7.37;;;;;;;;;;5028254;28;20079;-61
2021/11/13 08:21:35;;;;;;;9.53;7.10;;;;;;;;;;5028733;28;20096;-61
2021/11/13 08:24:03;;;;;;;12.73;7.87;;;;;;;;;;5028499;28;20440;-61
2021/11/13 08:26:29;;;;;;;10.73;7.40;;;;;;;;;;5028983;28;20033;-61
2021/11/13 08:29:04;;;;;;;11.63;7.50;;;;;;;;;;5033845;28;20029;-61
2021/11/13 08:31:31;;;;;;;9.77;7.70;;;;;;;;;;5013695;28;20416;-61
2021/11/13 08:33:57;;;;;;;10.73;8.47;;;;;;;;;;5013948;28;20022;-60
2021/11/13 08:36:24;;;;;;;10.77;7.57;;;;;;;;;;5013895;28;20026;-62
2021/11/13 08:38:51;;;;;;;12.63;7.30;;;;;;;;;;5032374;28;20024;-62
2021/11/13 08:41:23;;;;;;;9.53;8.10;;;;;;;;;;5028225;28;20018;-61
2021/11/13 08:43:50;;;;;;;15.63;9.43;;;;;;;;;;5028071;28;20029;-60
2021/11/13 08:46:17;;;;;;;14.43;10.73;;;;;;;;;;5028330;28;20034;-60
2021/11/13 08:48:44;;;;;;;12.37;10.37;;;;;;;;;;5028267;28;20477;-60
2021/11/13 08:51:11;;;;;;;14.17;11.20;;;;;;;;;;5033525;28;20034;-60
2021/11/13 08:53:43;;;;;;;12.40;9.93;;;;;;;;;;5033338;28;20021;-61
2021/11/13 08:56:10;;;;;;;16.97;10.97;;;;;;;;;;5033317;28;20029;-60
2021/11/13 08:58:37;;;;;;;14.23;10.30;;;;;;;;;;5032688;28;20115;-61
2021/11/13 09:01:06;;;;;;;12.00;9.80;;;;;;;;;;5032289;28;20026;-61
2021/11/13 09:03:53;;;;;;;12.07;10.67;;;;;;;;;;5027860;28;20523;-61
2021/11/13 09:06:22;;;;;;;13.17;11.07;;;;;;;;;;5027943;28;20033;-60
2021/11/13 09:08:51;;;;;;;14.63;10.60;;;;;;;;;;5027844;28;20196;-60
2021/11/13 09:11:22;;;;;;;11.33;8.40;;;;;;;;;;5028139;28;20028;-61
2021/11/13 09:13:49;;;;;;;10.80;7.93;;;;;;;;;;5032980;28;20051;-60
2021/11/13 09:16:17;;;;;;;10.27;8.20;;;;;;;;;;5032394;28;20274;-60
2021/11/13 09:18:44;;;;;;;11.20;7.83;;;;;;;;;;5032590;28;20025;-60
2021/11/13 09:21:11;;;;;;;10.00;7.67;;;;;;;;;;5032365;28;20346;-61
2021/11/13 09:23:41;;;;;;;11.10;9.07;;;;;;;;;;5031224;28;20116;-61
2021/11/13 09:26:10;;;;;;;12.70;9.80;;;;;;;;;;5027547;28;20468;-61
2021/11/13 09:28:37;;;;;;;9.93;8.73;;;;;;;;;;5027092;28;20093;-60
2021/11/13 09:31:04;;;;;;;9.67;7.80;;;;;;;;;;5027214;28;20255;-60
2021/11/13 09:33:31;;;;;;;11.23;9.20;;;;;;;;;;5028177;28;20375;-60
2021/11/13 09:36:00;;;;;;;11.97;9.50;;;;;;;;;;5032233;28;20044;-60
2021/11/13 09:38:29;;;;;;;13.20;10.43;;;;;;;;;;5032500;28;20026;-60
2021/11/13 09:40:57;;;;;;;11.67;10.10;;;;;;;;;;5032467;28;20259;-60
2021/11/13 09:43:27;;;;;;;11.37;9.57;;;;;;;;;;5031821;28;20262;-61
2021/11/13 09:45:55;;;;;;;11.37;9.47;;;;;;;;;;5030652;28;20040;-61
2021/11/13 09:48:22;;;;;;;11.00;8.93;;;;;;;;;;5027134;28;20022;-61
2021/11/13 09:50:50;;;;;;;13.57;9.87;;;;;;;;;;5027065;28;20254;-61
2021/11/13 09:53:18;;;;;;;10.87;8.47;;;;;;;;;;5027128;28;20262;-60
2021/11/13 09:55:45;;;;;;;11.87;9.13;;;;;;;;;;5027613;28;20258;-60
2021/11/13 09:58:12;;;;;;;11.17;8.43;;;;;;;;;;5031859;28;20780;-60
2021/11/13 10:00:40;;;;;;;9.70;7.07;;;;;;;;;;5032283;28;20251;-60
2021/11/13 10:03:07;;;;;;;10.77;8.63;;;;;;;;;;5032072;28;20274;-60
2021/11/13 10:05:34;;;;;;;11.10;9.03;;;;;;;;;;5032186;28;20287;-60
2021/11/13 10:08:01;;;;;;;12.17;9.70;;;;;;;;;;5030573;28;20286;-60
2021/11/13 10:10:36;;;;;;;11.43;8.50;;;;;;;;;;5026918;28;20262;-60
2021/11/13 10:13:23;;;;;;;;;;;;;;;;;;5027017;28;20541;-61
2021/11/13 10:15:52;;;;;;;14.80;9.82;;;;;;;;;;5026384;28;20007;-60
2021/11/13 10:18:20;;;;;;;14.70;9.00;;;;;;;;;;5028192;28;20032;-60
2021/11/13 10:20:51;;;;;;;17.23;10.07;;;;;;;;;;5032051;28;20266;-60
2021/11/13 10:23:40;;;;;;;17.13;12.73;;;;;;;;;;5034953;28;20253;-60
2021/11/13 10:26:10;;;;;;;15.70;11.47;;;;;;;;;;5035824;28;20282;-61
2021/11/13 10:28:56;;;;;;;19.43;13.67;;;;;;;;;;5036052;28;20251;-60
2021/11/13 10:31:25;;;;;;;19.90;13.00;;;;;;;;;;5032299;28;20258;-61
2021/11/13 10:33:56;;;;;;;15.13;10.97;;;;;;;;;;5030813;28;20294;-60
2021/11/13 10:36:27;;;;;;;16.77;11.43;;;;;;;;;;5030214;28;20267;-60
2021/11/13 10:38:58;;;;;;;17.07;11.27;;;;;;;;;;5030190;28;20267;-60
2021/11/13 10:41:25;;;;;;;15.37;11.33;;;;;;;;;;5033930;28;20251;-60
2021/11/13 10:43:52;;;;;;;15.73;11.40;;;;;;;;;;5035280;28;20691;-60
2021/11/13 10:46:21;;;;;;;18.33;13.70;;;;;;;;;;5035476;28;20295;-61
2021/11/13 10:48:49;;;;;;;16.03;10.87;;;;;;;;;;5035651;28;20255;-60
2021/11/13 10:51:17;;;;;;;17.80;11.57;;;;;;;;;;5035625;28;20266;-61
2021/11/13 10:53:45;;;;;;;18.07;12.30;;;;;;;;;;5031557;28;20656;-62
2021/11/13 10:56:17;;;;;;;17.03;13.57;;;;;;;;;;5030064;28;20266;-61
2021/11/13 10:59:04;;;;;;;14.27;10.10;;;;;;;;;;5029985;28;20255;-61
2021/11/13 11:01:38;;;;;;;14.00;10.87;;;;;;;;;;5030171;28;20251;-61
2021/11/13 11:04:07;;;;;;;12.57;9.75;;;;;;;;;;5034633;28;20266;-61
2021/11/13 11:06:38;;;;;;;14.60;11.10;;;;;;;;;;5035056;28;20115;-61
2021/11/13 11:09:27;;;;;;;14.53;11.23;;;;;;;;;;5035328;28;20336;-61
2021/11/13 11:11:56;;;;;;;15.73;11.70;;;;;;;;;;5035208;28;20269;-61
2021/11/13 11:14:24;;;;;;;14.07;10.70;;;;;;;;;;5034735;28;20275;-61
2021/11/13 11:16:53;;;;;;;13.37;10.10;;;;;;;;;;5029080;28;20271;-61
2021/11/13 11:19:23;;;;;;;13.00;9.77;;;;;;;;;;5029969;28;20259;-61
2021/11/13 11:21:53;;;;;;;13.70;10.13;;;;;;;;;;5029910;28;20265;-61
2021/11/13 11:24:30;;;;;;;13.27;10.77;;;;;;;;;;5029764;28;20331;-61
2021/11/13 11:27:02;;;;;;;12.00;9.83;;;;;;;;;;5034845;28;20286;-61
2021/11/13 11:29:30;;;;;;;13.17;9.43;;;;;;;;;;5034722;28;20254;-62
2021/11/13 11:32:00;;;;;;;13.87;10.60;;;;;;;;;;5034895;28;20756;-61
2021/11/13 11:34:28;;;;;;;14.37;10.33;;;;;;;;;;5034060;28;20267;-61
2021/11/13 11:36:56;;;;;;;14.23;9.53;;;;;;;;;;5033243;28;20748;-61
2021/11/13 11:39:31;;;;;;;16.13;9.20;;;;;;;;;;5029347;28;20301;-61
2021/11/13 11:41:58;;;;;;;13.83;9.63;;;;;;;;;;5029502;28;20254;-61
2021/11/13 11:44:25;;;;;;;22.70;10.87;;;;;;;;;;5029504;28;20606;-63
2021/11/13 11:46:52;;;;;;;11.50;8.43;;;;;;;;;;5029942;28;20374;-60
2021/11/13 11:49:19;;;;;;;13.63;10.00;;;;;;;;;;5034000;28;20613;-61
2021/11/13 11:51:47;;;;;;;11.27;8.57;;;;;;;;;;5034427;28;20284;-61
2021/11/13 11:54:17;;;;;;;11.80;9.93;;;;;;;;;;5034376;28;20337;-61
2021/11/13 11:56:45;;;;;;;11.83;9.83;;;;;;;;;;5034022;28;20737;-61
2021/11/13 11:59:12;;;;;;;17.60;9.17;;;;;;;;;;5033165;28;20357;-61
2021/11/13 12:01:40;;;;;;;11.43;9.10;;;;;;;;;;5028992;28;20259;-61
2021/11/13 12:04:20;;;;;;;11.87;8.97;;;;;;;;;;5029265;28;20258;-61
2021/11/13 12:06:49;;;;;;;14.47;9.77;;;;;;;;;;5028630;28;20291;-61
2021/11/13 12:09:17;;;;;;;11.77;9.40;;;;;;;;;;5029557;28;20341;-60
2021/11/13 12:11:44;;;;;;;12.97;9.70;;;;;;;;;;5034078;28;20286;-61
2021/11/13 12:14:23;;;;;;;14.33;10.17;;;;;;;;;;5034214;28;20263;-61
2021/11/13 12:16:51;;;;;;;12.33;9.47;;;;;;;;;;5034195;28;20359;-61
2021/11/13 12:19:18;;;;;;;13.13;9.50;;;;;;;;;;5033904;28;20257;-60
2021/11/13 12:21:55;;;;;;;10.53;8.17;;;;;;;;;;5031500;28;20263;-61
2021/11/13 12:24:22;;;;;;;16.20;10.50;;;;;;;;;;5028557;28;20250;-61
2021/11/13 12:27:02;;;;;;;12.13;9.63;;;;;;;;;;5027742;28;20295;-60
2021/11/13 12:29:44;;;;;;;12.70;9.73;;;;;;;;;;5028562;28;20741;-61
2021/11/13 12:32:13;;;;;;;12.20;9.40;;;;;;;;;;5031186;28;20255;-61
2021/11/13 12:34:40;;;;;;;10.90;8.67;;;;;;;;;;5033692;28;20262;-61
2021/11/13 12:37:08;;;;;;;12.80;8.97;;;;;;;;;;5033760;28;20275;-61
2021/11/13 12:39:40;;;;;;;12.27;8.47;;;;;;;;;;5033515;28;20334;-61
2021/11/13 12:42:08;;;;;;;13.77;10.43;;;;;;;;;;5033362;28;20262;-61
2021/11/13 12:44:38;;;;;;;10.57;8.20;;;;;;;;;;5029453;28;20320;-61
2021/11/13 12:47:05;;;;;;;12.93;8.90;;;;;;;;;;5027475;28;20294;-61
2021/11/13 12:49:34;;;;;;;13.20;9.57;;;;;;;;;;5028215;28;20266;-61
2021/11/13 12:52:00;;;;;;;13.77;10.13;;;;;;;;;;5027879;28;20614;-61
2021/11/13 12:54:31;;;;;;;16.03;11.43;;;;;;;;;;5030693;28;20361;-61
2021/11/13 12:59:57;;;;;;;13.33;9.63;;;;;;;;;;5033293;28;20259;-61
2021/11/13 13:02:25;;;;;;;15.70;10.20;;;;;;;;;;5033169;28;20263;-61
2021/11/13 13:04:52;;;;;;;14.97;9.97;;;;;;;;;;5033200;28;20270;-61
2021/11/13 13:07:19;;;;;;;12.80;9.43;;;;;;;;;;5028261;28;20286;-60
2021/11/13 13:10:04;;;;;;;14.07;9.63;;;;;;;;;;5027622;28;20309;-61
2021/11/13 13:12:32;;;;;;;12.23;7.97;;;;;;;;;;5027744;28;20294;-60
2021/11/13 13:15:05;;;;;;;19.77;10.53;;;;;;;;;;5027522;28;20021;-60
2021/11/13 13:17:33;;;;;;;21.73;11.37;;;;;;;;;;5031687;28;20258;-61
2021/11/13 13:20:00;;;;;;;16.63;11.27;;;;;;;;;;5032457;28;20332;-60
2021/11/13 13:22:28;;;;;;;20.20;11.70;;;;;;;;;;5032903;28;20250;-60
2021/11/13 13:24:56;;;;;;;16.37;10.53;;;;;;;;;;5032700;28;20263;-61
2021/11/13 13:27:23;;;;;;;15.87;10.00;;;;;;;;;;5032476;28;20286;-61
2021/11/13 13:30:05;;;;;;;13.77;10.67;;;;;;;;;;5027683;28;20263;-60
2021/11/13 13:32:32;;;;;;;13.90;10.10;;;;;;;;;;5027231;28;20262;-61
2021/11/13 13:35:04;;;;;;;17.20;11.67;;;;;;;;;;5027310;28;20258;-61
2021/11/13 13:37:51;;;;;;;18.87;11.90;;;;;;;;;;5027005;28;20664;-61
2021/11/13 13:40:28;;;;;;;14.30;8.97;;;;;;;;;;5032391;28;20295;-60
2021/11/13 13:43:16;;;;;;;9.80;8.43;;;;;;;;;;5032438;28;20025;-61
2021/11/13 13:45:47;;;;;;;14.27;9.00;;;;;;;;;;5031033;28;20542;-61
2021/11/13 13:48:18;;;;;;;11.40;9.37;;;;;;;;;;5032076;28;20021;-61
2021/11/13 13:50:49;;;;;;;10.87;8.23;;;;;;;;;;5030406;28;20037;-61
2021/11/13 13:53:15;;;;;;;10.23;8.00;;;;;;;;;;5027064;28;20021;-61
2021/11/13 13:55:43;;;;;;;9.87;8.10;;;;;;;;;;5026656;28;20026;-61
2021/11/13 13:58:11;;;;;;;11.90;8.30;;;;;;;;;;5027005;28;20434;-61
2021/11/13 14:00:39;;;;;;;12.33;8.30;;;;;;;;;;5028144;28;20028;-61
2021/11/13 14:03:06;;;;;;;8.13;6.90;;;;;;;;;;5032094;28;20032;-61
2021/11/13 14:05:34;;;;;;;9.77;6.60;;;;;;;;;;5032014;28;20037;-61
2021/11/13 14:08:10;;;;;;;8.57;6.67;;;;;;;;;;5031987;28;20523;-61
2021/11/13 14:10:47;;;;;;;7.60;5.87;;;;;;;;;;5032193;28;20030;-61
2021/11/13 14:13:18;;;;;;;8.60;6.43;;;;;;;;;;5029078;28;20026;-61
2021/11/13 14:15:55;;;;;;;10.43;7.23;;;;;;;;;;5007351;28;20026;-61
2021/11/13 14:18:27;;;;;;;9.37;6.53;;;;;;;;;;5007082;28;20025;-61
2021/11/13 14:20:54;;;;;;;9.10;6.70;;;;;;;;;;5007094;28;20025;-62
2021/11/13 14:23:22;;;;;;;8.77;6.47;;;;;;;;;;5009144;28;20030;-62
2021/11/13 14:25:53;;;;;;;11.10;7.57;;;;;;;;;;5012280;28;20030;-61
2021/11/13 14:28:23;;;;;;;15.40;9.30;;;;;;;;;;5012111;28;20100;-61
2021/11/13 14:30:50;;;;;;;11.10;7.40;;;;;;;;;;5026506;28;20040;-61
2021/11/13 14:33:17;;;;;;;10.17;7.43;;;;;;;;;;5031948;28;20076;-61
2021/11/13 14:35:44;;;;;;;14.43;7.90;;;;;;;;;;5028936;28;20606;-62
2021/11/13 14:38:12;;;;;;;10.57;7.07;;;;;;;;;;5026396;28;20033;-62
2021/11/13 14:40:58;;;;;;;10.77;7.13;;;;;;;;;;5026478;28;20058;-61
2021/11/13 14:43:35;;;;;;;11.70;6.43;;;;;;;;;;5026676;28;20052;-61
2021/11/13 14:46:12;;;;;;;10.57;6.73;;;;;;;;;;5029723;28;20116;-61
2021/11/13 14:48:39;;;;;;;9.33;6.07;;;;;;;;;;5031233;28;20037;-61
2021/11/13 14:51:31;;;;;;;8.27;6.20;;;;;;;;;;5031759;28;20055;-61
2021/11/13 14:54:07;;;;;;;7.87;6.37;;;;;;;;;;5030697;28;20042;-61
2021/11/13 14:56:34;;;;;;;9.30;6.10;;;;;;;;;;5030392;28;20538;-61
2021/11/13 14:59:05;;;;;;;10.47;6.00;;;;;;;;;;5026265;28;20375;-61
2021/11/13 15:01:33;;;;;;;10.67;6.00;;;;;;;;;;5026642;28;20037;-61